createdAt,value
2018-06-30T00:02:02.038Z,15.60
2018-06-30T00:04:30.432Z,15.60
2018-06-30T00:06:59.179Z,15.60
2018-06-30T00:09:27.414Z,15.60
2018-06-30T00:14:24.789Z,15.60
2018-06-30T00:16:53.047Z,15.60
2018-06-30T00:19:21.135Z,15.60
2018-06-30T00:24:18.318Z,15.50
2018-06-30T00:26:47.954Z,15.50
2018-06-30T00:29:16.153Z,15.40
2018-06-30T00:31:44.986Z,15.40
2018-06-30T00:36:43.265Z,15.30
2018-06-30T00:39:11.496Z,15.20
2018-06-30T00:41:40.413Z,15.30
2018-06-30T00:44:08.692Z,15.30
2018-06-30T00:46:37.418Z,15.30
2018-06-30T00:51:34.240Z,15.10
2018-06-30T00:54:03.268Z,15.10
2018-06-30T00:59:01.088Z,15.10
2018-06-30T01:01:30.180Z,15.20
2018-06-30T01:03:58.371Z,15.30
2018-06-30T01:06:27.186Z,15.20
2018-06-30T01:08:55.787Z,15.20
2018-06-30T01:11:24.346Z,15.10
2018-06-30T01:13:52.923Z,15.10
2018-06-30T01:16:22.065Z,15.20
2018-06-30T01:23:47.317Z,15.20
2018-06-30T01:26:15.648Z,15.10
2018-06-30T01:28:45.020Z,15.00
2018-06-30T01:31:13.451Z,14.70
2018-06-30T01:38:38.764Z,14.40
2018-06-30T01:41:06.887Z,14.40
2018-06-30T01:46:03.606Z,14.30
2018-06-30T01:51:00.832Z,14.40
2018-06-30T01:53:29.395Z,14.30
2018-06-30T01:55:57.963Z,14.20
2018-06-30T02:00:55.470Z,14.20
2018-06-30T02:03:23.919Z,14.20
2018-06-30T02:08:22.070Z,14.00
2018-06-30T02:10:51.093Z,13.90
2018-06-30T02:13:19.861Z,13.80
2018-06-30T02:15:48.939Z,13.80
2018-06-30T02:18:17.106Z,13.70
2018-06-30T02:20:45.279Z,13.70
2018-06-30T02:23:15.019Z,13.70
2018-06-30T02:25:45.032Z,13.60
2018-06-30T02:28:13.699Z,13.60
2018-06-30T02:30:42.721Z,13.50
2018-06-30T02:33:11.617Z,13.50
2018-06-30T02:35:39.938Z,13.50
2018-06-30T02:38:08.934Z,13.50
2018-06-30T02:40:37.238Z,13.50
2018-06-30T02:43:05.369Z,13.40
2018-06-30T02:48:02.678Z,13.30
2018-06-30T02:50:30.770Z,13.30
2018-06-30T02:53:00.382Z,13.30
2018-06-30T02:55:29.231Z,13.20
2018-06-30T02:57:57.859Z,13.20
2018-06-30T03:00:26.573Z,13.10
2018-06-30T03:05:24.113Z,13.10
2018-06-30T03:07:53.626Z,13.10
2018-06-30T03:10:22.597Z,13.00
2018-06-30T03:12:51.101Z,13.00
2018-06-30T03:15:19.518Z,13.00
2018-06-30T03:20:16.421Z,12.90
2018-06-30T03:22:44.830Z,12.90
2018-06-30T03:25:13.192Z,12.90
2018-06-30T03:27:42.130Z,12.90
2018-06-30T03:32:39.237Z,12.80
2018-06-30T03:35:07.685Z,12.80
2018-06-30T03:37:35.860Z,12.80
2018-06-30T03:40:04.067Z,12.80
2018-06-30T03:42:33.570Z,12.90
2018-06-30T03:45:01.886Z,12.80
2018-06-30T03:47:30.414Z,12.90
2018-06-30T03:49:59.465Z,12.80
2018-06-30T03:52:28.881Z,12.80
2018-06-30T03:54:57.106Z,12.70
2018-06-30T03:57:26.966Z,12.80
2018-06-30T03:59:55.998Z,12.80
2018-06-30T04:02:25.146Z,12.80
2018-06-30T04:04:53.758Z,12.90
2018-06-30T04:09:50.338Z,12.80
2018-06-30T04:12:19.066Z,12.80
2018-06-30T04:14:47.928Z,12.90
2018-06-30T04:17:16.102Z,12.90
2018-06-30T04:19:45.778Z,12.90
2018-06-30T04:22:13.934Z,12.90
2018-06-30T04:24:43.062Z,12.80
2018-06-30T04:29:39.409Z,12.70
2018-06-30T04:32:07.709Z,12.70
2018-06-30T04:34:36.821Z,12.70
2018-06-30T04:37:06.818Z,12.70
2018-06-30T04:39:35.531Z,12.70
2018-06-30T04:42:03.694Z,12.80
2018-06-30T04:44:32.004Z,13.00
2018-06-30T04:47:00.970Z,13.10
2018-06-30T04:49:29.546Z,13.20
2018-06-30T04:51:58.582Z,13.50
2018-06-30T04:54:26.990Z,13.60
2018-06-30T04:56:56.767Z,13.60
2018-06-30T04:59:25.878Z,13.50
2018-06-30T05:04:23.761Z,14.40
2018-06-30T05:09:21.058Z,15.20
2018-06-30T05:11:50.991Z,15.40
2018-06-30T05:14:19.851Z,15.60
2018-06-30T05:19:15.938Z,15.80
2018-06-30T05:21:45.846Z,16.00
2018-06-30T05:24:14.755Z,16.30
2018-06-30T05:26:44.355Z,16.70
2018-06-30T05:29:13.029Z,16.90
2018-06-30T05:31:41.378Z,17.10
2018-06-30T05:36:38.338Z,17.80
2018-06-30T05:39:07.925Z,17.90
2018-06-30T05:41:36.377Z,18.00
2018-06-30T05:44:04.842Z,18.20
2018-06-30T05:46:33.379Z,18.30
2018-06-30T05:49:02.215Z,18.40
2018-06-30T05:51:30.957Z,18.90
2018-06-30T05:56:27.145Z,18.70
2018-06-30T05:58:55.914Z,18.90
2018-06-30T06:01:24.210Z,19.10
2018-06-30T06:03:52.393Z,19.10
2018-06-30T06:06:22.118Z,19.50
2018-06-30T06:08:50.993Z,19.40
2018-06-30T06:11:20.022Z,19.00
2018-06-30T06:13:49.484Z,19.20
2018-06-30T06:16:18.071Z,18.80
2018-06-30T06:18:46.370Z,19.30
2018-06-30T06:21:14.810Z,19.00
2018-06-30T06:23:42.915Z,19.10
2018-06-30T06:26:10.978Z,19.50
2018-06-30T06:28:40.161Z,19.50
2018-06-30T06:31:09.987Z,20.30
2018-06-30T06:33:38.173Z,20.80
2018-06-30T06:36:07.194Z,20.50
2018-06-30T06:38:36.034Z,20.90
2018-06-30T06:41:04.324Z,21.70
2018-06-30T06:43:32.805Z,21.90
2018-06-30T06:46:01.838Z,21.80
2018-06-30T06:48:31.715Z,21.70
2018-06-30T06:51:00.026Z,22.20
2018-06-30T06:53:29.206Z,21.70
2018-06-30T06:55:57.622Z,22.30
2018-06-30T06:58:26.182Z,22.50
2018-06-30T07:00:54.739Z,22.80
2018-06-30T07:03:23.597Z,23.50
2018-06-30T07:08:20.751Z,22.80
2018-06-30T07:10:50.440Z,23.70
2018-06-30T07:13:18.754Z,24.40
2018-06-30T07:15:47.269Z,24.60
2018-06-30T07:18:15.559Z,23.70
2018-06-30T07:20:45.468Z,23.70
2018-06-30T07:23:13.799Z,23.90
2018-06-30T07:28:10.325Z,23.60
2018-06-30T07:30:39.398Z,23.60
2018-06-30T07:38:04.378Z,24.80
2018-06-30T07:45:30.722Z,26.00
2018-06-30T07:47:59.688Z,26.80
2018-06-30T07:50:28.750Z,27.10
2018-06-30T07:52:56.957Z,26.90
2018-06-30T07:55:26.360Z,27.40
2018-06-30T07:57:54.662Z,27.90
2018-06-30T08:00:22.884Z,28.30
2018-06-30T08:05:21.340Z,28.70
2018-06-30T08:07:49.714Z,27.10
2018-06-30T08:10:18.307Z,26.20
2018-06-30T08:12:46.633Z,27.30
2018-06-30T08:17:44.441Z,25.20
2018-06-30T08:20:13.366Z,25.90
2018-06-30T08:22:42.186Z,25.80
2018-06-30T08:25:10.988Z,27.50
2018-06-30T08:27:39.704Z,26.10
2018-06-30T08:30:08.286Z,25.50
2018-06-30T08:32:38.106Z,25.80
2018-06-30T08:35:07.402Z,26.60
2018-06-30T08:37:35.478Z,27.10
2018-06-30T08:40:04.747Z,26.30
2018-06-30T08:49:58.813Z,27.30
2018-06-30T08:52:27.315Z,28.20
2018-06-30T08:54:55.485Z,28.60
2018-06-30T08:57:24.422Z,29.40
2018-06-30T09:02:21.367Z,27.60
2018-06-30T09:04:50.111Z,28.50
2018-06-30T09:07:18.442Z,28.60
2018-06-30T09:09:46.587Z,28.80
2018-06-30T09:12:15.248Z,28.40
2018-06-30T09:14:44.132Z,28.70
2018-06-30T09:17:12.397Z,30.10
2018-06-30T09:19:40.519Z,29.40
2018-06-30T09:22:09.118Z,29.10
2018-06-30T09:29:35.386Z,31.20
2018-06-30T09:32:03.507Z,32.20
2018-06-30T09:34:33.422Z,32.00
2018-06-30T09:37:01.956Z,31.30
2018-06-30T09:39:30.635Z,31.30
2018-06-30T09:41:58.910Z,29.60
2018-06-30T09:44:27.251Z,27.40
2018-06-30T09:46:55.558Z,28.60
2018-06-30T09:49:23.701Z,28.70
2018-06-30T09:51:54.580Z,30.00
2018-06-30T09:54:22.852Z,28.30
2018-06-30T09:56:52.853Z,27.00
2018-06-30T09:59:21.173Z,26.40
2018-06-30T10:04:17.405Z,29.90
2018-06-30T10:06:45.751Z,28.60
2018-06-30T10:09:14.390Z,30.10
2018-06-30T10:11:43.418Z,28.80
2018-06-30T10:14:12.153Z,28.00
2018-06-30T10:16:40.440Z,27.60
2018-06-30T10:19:09.251Z,27.70
2018-06-30T10:21:38.187Z,27.10
2018-06-30T10:24:06.551Z,25.20
2018-06-30T10:26:34.682Z,25.70
2018-06-30T10:29:04.470Z,25.70
2018-06-30T10:31:33.939Z,25.50
2018-06-30T10:34:02.183Z,27.70
2018-06-30T10:38:59.201Z,29.30
2018-06-30T10:41:28.404Z,28.80
2018-06-30T10:43:58.121Z,28.80
2018-06-30T10:46:26.347Z,30.60
2018-06-30T10:48:54.674Z,30.10
2018-06-30T10:51:24.098Z,27.90
2018-06-30T10:53:52.435Z,28.50
2018-06-30T10:56:21.146Z,28.90
2018-06-30T10:58:50.021Z,27.90
2018-06-30T11:01:18.418Z,27.00
2018-06-30T11:03:46.929Z,26.20
2018-06-30T11:06:15.378Z,25.80
2018-06-30T11:08:44.466Z,26.60
2018-06-30T11:11:13.322Z,28.60
2018-06-30T11:13:42.161Z,29.70
2018-06-30T11:16:10.311Z,28.10
2018-06-30T11:18:39.707Z,28.80
2018-06-30T11:21:07.981Z,30.30
2018-06-30T11:23:36.944Z,30.90
2018-06-30T11:28:34.225Z,30.80
2018-06-30T11:34:37.202Z,30.90
2018-06-30T11:39:35.532Z,30.50
2018-06-30T11:42:04.566Z,29.30
2018-06-30T11:44:32.898Z,27.40
2018-06-30T11:49:29.953Z,28.00
2018-06-30T11:54:27.553Z,29.00
2018-06-30T11:56:56.183Z,29.30
2018-06-30T11:59:25.047Z,28.00
2018-06-30T12:01:53.735Z,27.40
2018-06-30T12:04:23.862Z,26.40
2018-06-30T12:06:52.054Z,26.40
2018-06-30T12:09:21.493Z,26.50
2018-06-30T12:11:49.631Z,26.40
2018-06-30T12:14:18.194Z,28.00
2018-06-30T12:16:47.028Z,29.80
2018-06-30T12:19:15.882Z,30.40
2018-06-30T12:21:44.274Z,29.60
2018-06-30T12:24:12.842Z,30.40
2018-06-30T12:26:42.631Z,30.00
2018-06-30T12:29:10.930Z,28.70
2018-06-30T12:31:40.982Z,29.00
2018-06-30T12:34:09.213Z,28.80
2018-06-30T12:36:37.831Z,29.30
2018-06-30T12:39:07.736Z,29.00
2018-06-30T12:41:36.120Z,29.40
2018-06-30T12:44:04.897Z,30.10
2018-06-30T12:46:34.013Z,30.50
2018-06-30T12:49:02.830Z,30.70
2018-06-30T12:51:31.526Z,29.90
2018-06-30T12:56:28.242Z,30.30
2018-06-30T12:58:56.604Z,29.70
2018-06-30T13:01:25.176Z,28.50
2018-06-30T13:03:54.887Z,29.10
2018-06-30T13:06:23.918Z,27.80
2018-06-30T13:08:53.310Z,26.00
2018-06-30T13:11:21.655Z,25.40
2018-06-30T13:18:47.771Z,25.80
2018-06-30T13:21:15.869Z,27.10
2018-06-30T13:28:41.563Z,27.00
2018-06-30T13:31:10.661Z,26.30
2018-06-30T13:33:38.905Z,25.30
2018-06-30T13:36:07.191Z,24.60
2018-06-30T13:38:37.114Z,24.20
2018-06-30T13:41:05.465Z,23.90
2018-06-30T13:46:01.768Z,25.80
2018-06-30T13:48:29.977Z,26.60
2018-06-30T13:50:58.956Z,27.40
2018-06-30T13:53:27.646Z,27.70
2018-06-30T13:55:56.577Z,27.70
2018-06-30T13:58:25.496Z,27.50
2018-06-30T14:05:51.487Z,24.20
2018-06-30T14:08:19.687Z,23.80
2018-06-30T14:13:17.372Z,23.60
2018-06-30T14:15:45.918Z,23.90
2018-06-30T14:18:14.207Z,24.60
2018-06-30T14:20:42.859Z,25.00
2018-06-30T14:28:09.166Z,25.60
2018-06-30T14:30:38.781Z,25.70
2018-06-30T14:33:06.943Z,25.30
2018-06-30T14:35:35.198Z,24.90
2018-06-30T14:38:03.610Z,24.40
2018-06-30T14:40:31.755Z,24.00
2018-06-30T14:43:00.413Z,23.80
2018-06-30T14:45:28.605Z,23.90
2018-06-30T14:47:57.147Z,23.90
2018-06-30T14:50:25.490Z,24.40
2018-06-30T14:52:53.652Z,25.00
2018-06-30T14:55:22.302Z,24.50
2018-06-30T15:02:48.618Z,24.30
2018-06-30T15:05:18.694Z,24.20
2018-06-30T15:07:47.072Z,24.60
2018-06-30T15:12:43.493Z,24.80
2018-06-30T15:15:11.987Z,24.40
2018-06-30T15:20:08.702Z,24.30
2018-06-30T15:22:36.940Z,24.20
2018-06-30T15:25:05.467Z,24.20
2018-06-30T15:27:34.469Z,24.40
2018-06-30T15:30:02.631Z,24.70
2018-06-30T15:32:31.954Z,24.90
2018-06-30T15:35:00.466Z,25.20
2018-06-30T15:39:57.821Z,25.10
2018-06-30T15:42:26.679Z,24.50
2018-06-30T15:44:54.834Z,24.00
2018-06-30T15:47:23.302Z,24.20
2018-06-30T15:49:51.613Z,24.60
2018-06-30T15:52:20.200Z,24.80
2018-06-30T15:54:48.965Z,24.60
2018-06-30T15:57:17.706Z,24.20
2018-06-30T15:59:46.851Z,24.30
2018-06-30T16:02:15.129Z,23.90
2018-06-30T16:04:44.122Z,23.70
2018-06-30T16:07:12.728Z,23.50
2018-06-30T16:09:41.550Z,23.40
2018-06-30T16:12:09.881Z,23.20
2018-06-30T16:14:38.572Z,23.20
2018-06-30T16:17:07.858Z,23.20
2018-06-30T16:19:36.428Z,23.20
2018-06-30T16:22:05.155Z,23.00
2018-06-30T16:24:33.785Z,23.10
2018-06-30T16:29:30.930Z,23.10
2018-06-30T16:31:59.073Z,23.30
2018-06-30T16:34:27.685Z,23.30
2018-06-30T16:41:52.585Z,23.00
2018-06-30T16:44:21.931Z,23.10
2018-06-30T16:46:50.771Z,22.90
2018-06-30T16:49:19.780Z,22.90
2018-06-30T16:51:47.939Z,22.70
2018-06-30T16:54:17.167Z,22.70
2018-06-30T16:56:45.530Z,23.00
2018-06-30T16:59:14.357Z,22.70
2018-06-30T17:01:43.906Z,22.60
2018-06-30T17:04:12.417Z,22.50
2018-06-30T17:06:42.866Z,22.60
2018-06-30T17:09:14.310Z,22.50
2018-06-30T17:11:43.008Z,22.50
2018-06-30T17:14:11.713Z,22.40
2018-06-30T17:21:36.911Z,22.00
2018-06-30T17:24:06.483Z,22.00
2018-06-30T17:26:35.532Z,22.00
2018-06-30T17:29:03.766Z,22.00
2018-06-30T17:31:32.520Z,22.00
2018-06-30T17:34:01.299Z,22.00
2018-06-30T17:36:29.677Z,21.90
2018-06-30T17:38:58.450Z,21.80
2018-06-30T17:41:26.982Z,21.80
2018-06-30T17:43:55.818Z,21.70
2018-06-30T17:46:24.889Z,21.60
2018-06-30T17:48:53.113Z,21.50
2018-06-30T17:51:22.035Z,21.50
2018-06-30T17:56:19.578Z,21.40
2018-06-30T18:01:16.342Z,21.30
2018-06-30T18:03:44.463Z,21.10
2018-06-30T18:06:13.754Z,21.00
2018-06-30T18:08:42.307Z,20.90
2018-06-30T18:11:10.414Z,20.90
2018-06-30T18:13:38.675Z,20.90
2018-06-30T18:18:34.982Z,20.90
2018-06-30T18:21:03.263Z,20.80
2018-06-30T18:23:32.105Z,20.60
2018-06-30T18:26:01.070Z,20.60
2018-06-30T18:28:29.775Z,20.60
2018-06-30T18:33:27.870Z,20.40
2018-06-30T18:35:56.932Z,20.30
2018-06-30T18:38:25.501Z,20.30
2018-06-30T18:40:54.166Z,20.20
2018-06-30T18:43:23.401Z,20.20
2018-06-30T18:45:51.674Z,20.10
2018-06-30T18:48:20.192Z,20.00
2018-06-30T18:53:17.311Z,20.00
2018-06-30T18:55:45.476Z,19.90
2018-06-30T18:58:14.278Z,19.80
2018-06-30T19:00:42.390Z,19.80
2018-06-30T19:03:10.961Z,19.70
2018-06-30T19:08:07.087Z,19.60
2018-06-30T19:10:36.071Z,19.50
2018-06-30T19:13:04.485Z,19.40
2018-06-30T19:18:02.215Z,19.30
2018-06-30T19:20:31.222Z,19.20
2018-06-30T19:23:00.149Z,19.10
2018-06-30T19:25:28.869Z,19.10
2018-06-30T19:27:57.883Z,19.00
2018-06-30T19:30:27.937Z,18.80
2018-06-30T19:32:56.297Z,18.80
2018-06-30T19:35:24.942Z,18.70
2018-06-30T19:37:53.651Z,18.70
2018-06-30T19:40:22.263Z,18.60
2018-06-30T19:42:51.149Z,18.50
2018-06-30T19:45:19.517Z,18.40
2018-06-30T19:47:48.375Z,18.40
2018-06-30T19:50:17.194Z,18.30
2018-06-30T19:52:46.977Z,18.20
2018-06-30T19:55:16.111Z,18.10
2018-06-30T19:57:44.995Z,18.10
2018-06-30T20:00:14.054Z,18.20
2018-06-30T20:02:42.825Z,18.20
2018-06-30T20:07:44.846Z,18.00
2018-06-30T20:10:13.127Z,18.00
2018-06-30T20:12:42.345Z,17.90
2018-06-30T20:15:10.701Z,17.90
2018-06-30T20:17:38.973Z,17.90
2018-06-30T20:20:07.750Z,17.80
2018-06-30T20:22:36.925Z,17.70
2018-06-30T20:25:07.023Z,17.50
2018-06-30T20:27:35.965Z,17.30
2018-06-30T20:30:05.075Z,17.30
2018-06-30T20:32:33.553Z,17.20
2018-06-30T20:35:02.150Z,17.10
2018-06-30T20:37:30.338Z,17.00
2018-06-30T20:39:59.334Z,17.00
2018-06-30T20:42:28.622Z,16.90
2018-06-30T20:44:57.657Z,16.90
2018-06-30T20:47:27.284Z,16.90
2018-06-30T20:57:20.626Z,16.80
2018-06-30T20:59:48.861Z,16.70
2018-06-30T21:04:45.190Z,16.60
2018-06-30T21:07:13.287Z,16.50
2018-06-30T21:14:38.987Z,16.20
2018-06-30T21:17:07.074Z,16.20
2018-06-30T22:44:03.965Z,15.30
2018-06-30T22:46:32.434Z,15.20
2018-06-30T22:49:00.685Z,15.20
2018-06-30T22:51:30.374Z,15.10
2018-06-30T22:53:59.436Z,15.10
2018-06-30T22:56:28.231Z,15.00
2018-06-30T22:58:57.994Z,15.00
2018-06-30T23:01:26.149Z,15.00
2018-06-30T23:03:54.292Z,15.00
2018-06-30T23:06:22.815Z,15.00
2018-06-30T23:08:53.286Z,14.90
2018-06-30T23:11:22.585Z,14.90
2018-06-30T23:13:52.008Z,14.90
2018-06-30T23:16:20.386Z,14.90
2018-06-30T23:18:48.893Z,14.80
2018-06-30T23:21:17.465Z,14.80
2018-06-30T23:23:46.954Z,14.90
2018-06-30T23:26:15.405Z,14.80
2018-06-30T23:28:43.558Z,14.80
2018-06-30T23:31:12.254Z,14.70
2018-06-30T23:36:08.702Z,14.70
2018-06-30T23:38:36.794Z,14.70
2018-06-30T23:41:05.117Z,14.50
2018-06-30T23:43:34.162Z,14.60
2018-06-30T23:48:30.409Z,14.50
2018-06-30T23:50:59.369Z,14.50
2018-06-30T23:53:27.733Z,14.50
2018-06-30T23:55:56.609Z,14.50
2018-06-30T23:58:25.014Z,14.50
